sensor_id;sensor_type;location;lat;lon;timestamp;pressure;altitude;pressure_sealevel;temperature;humidity
14120;BME280;7138;49.246;9.100;2023-04-06T00:01:59;98993.13;;;4.83;66.06
14120;BME280;7138;49.246;9.100;2023-04-06T00:04:25;98987.84;;;4.78;66.01
14120;BME280;7138;49.246;9.100;2023-04-06T00:06:51;98994.63;;;4.76;66.03
14120;BME280;7138;49.246;9.100;2023-04-06T00:09:16;98986.88;;;4.73;66.23
14120;BME280;7138;49.246;9.100;2023-04-06T00:11:42;98985.13;;;4.72;66.30
14120;BME280;7138;49.246;9.100;2023-04-06T00:14:08;98984.16;;;4.69;66.68
14120;BME280;7138;49.246;9.100;2023-04-06T00:16:34;98980.53;;;4.61;67.16
14120;BME280;7138;49.246;9.100;2023-04-06T00:19:01;98977.00;;;4.56;67.43
14120;BME280;7138;49.246;9.100;2023-04-06T00:21:27;98977.75;;;4.52;67.39
14120;BME280;7138;49.246;9.100;2023-04-06T00:23:53;98974.19;;;4.47;67.58
14120;BME280;7138;49.246;9.100;2023-04-06T00:26:18;98981.53;;;4.34;68.09
14120;BME280;7138;49.246;9.100;2023-04-06T00:28:45;98981.22;;;4.24;68.83
14120;BME280;7138;49.246;9.100;2023-04-06T00:31:11;98985.44;;;4.22;68.56
14120;BME280;7138;49.246;9.100;2023-04-06T00:33:37;98983.66;;;4.19;68.21
14120;BME280;7138;49.246;9.100;2023-04-06T00:36:04;98975.91;;;4.18;68.68
14120;BME280;7138;49.246;9.100;2023-04-06T00:38:31;98979.34;;;4.18;68.57
14120;BME280;7138;49.246;9.100;2023-04-06T00:40:57;98979.22;;;4.14;68.95
14120;BME280;7138;49.246;9.100;2023-04-06T00:43:23;98969.72;;;4.10;69.39
14120;BME280;7138;49.246;9.100;2023-04-06T00:45:50;98964.34;;;4.01;69.33
14120;BME280;7138;49.246;9.100;2023-04-06T00:48:16;98965.03;;;3.95;69.67
14120;BME280;7138;49.246;9.100;2023-04-06T00:50:42;98963.31;;;3.96;69.58
14120;BME280;7138;49.246;9.100;2023-04-06T00:53:09;98965.88;;;3.96;70.29
14120;BME280;7138;49.246;9.100;2023-04-06T00:55:35;98962.25;;;3.88;70.62
14120;BME280;7138;49.246;9.100;2023-04-06T00:58:02;98954.31;;;3.80;69.86
14120;BME280;7138;49.246;9.100;2023-04-06T01:00:28;98957.63;;;3.76;69.75
14120;BME280;7138;49.246;9.100;2023-04-06T01:02:53;98957.63;;;3.76;70.28
14120;BME280;7138;49.246;9.100;2023-04-06T01:05:19;98960.97;;;3.73;70.16
14120;BME280;7138;49.246;9.100;2023-04-06T01:07:46;98955.78;;;3.72;70.16
14120;BME280;7138;49.246;9.100;2023-04-06T01:10:23;98960.03;;;3.71;71.47
14120;BME280;7138;49.246;9.100;2023-04-06T01:12:49;98955.59;;;3.64;71.15
14120;BME280;7138;49.246;9.100;2023-04-06T01:15:15;98947.91;;;3.64;70.70
14120;BME280;7138;49.246;9.100;2023-04-06T01:17:41;98957.16;;;3.61;71.54
14120;BME280;7138;49.246;9.100;2023-04-06T01:20:08;98951.03;;;3.56;70.51
14120;BME280;7138;49.246;9.100;2023-04-06T01:22:35;98956.09;;;3.54;71.00
14120;BME280;7138;49.246;9.100;2023-04-06T01:25:01;98949.22;;;3.52;70.33
14120;BME280;7138;49.246;9.100;2023-04-06T01:27:26;98950.03;;;3.51;70.82
14120;BME280;7138;49.246;9.100;2023-04-06T01:29:53;98950.75;;;3.47;71.16
14120;BME280;7138;49.246;9.100;2023-04-06T01:32:19;98939.69;;;3.46;70.60
14120;BME280;7138;49.246;9.100;2023-04-06T01:34:46;98943.94;;;3.47;70.77
14120;BME280;7138;49.246;9.100;2023-04-06T01:37:12;98944.81;;;3.48;70.56
14120;BME280;7138;49.246;9.100;2023-04-06T01:39:39;98940.53;;;3.47;71.45
14120;BME280;7138;49.246;9.100;2023-04-06T01:42:05;98934.50;;;3.45;71.08
14120;BME280;7138;49.246;9.100;2023-04-06T01:44:31;98938.91;;;3.49;71.02
14120;BME280;7138;49.246;9.100;2023-04-06T01:46:56;98942.97;;;3.44;71.38
14120;BME280;7138;49.246;9.100;2023-04-06T01:49:22;98941.28;;;3.43;72.00
14120;BME280;7138;49.246;9.100;2023-04-06T01:51:48;98937.75;;;3.39;71.12
14120;BME280;7138;49.246;9.100;2023-04-06T01:54:14;98940.31;;;3.41;71.27
14120;BME280;7138;49.246;9.100;2023-04-06T01:56:41;98939.31;;;3.36;72.46
14120;BME280;7138;49.246;9.100;2023-04-06T01:59:07;98929.19;;;3.37;71.19
14120;BME280;7138;49.246;9.100;2023-04-06T02:01:33;98931.72;;;3.37;71.88
14120;BME280;7138;49.246;9.100;2023-04-06T02:03:58;98933.34;;;3.35;70.85
14120;BME280;7138;49.246;9.100;2023-04-06T02:06:24;98925.56;;;3.30;72.53
14120;BME280;7138;49.246;9.100;2023-04-06T02:08:50;98928.03;;;3.29;71.68
14120;BME280;7138;49.246;9.100;2023-04-06T02:11:16;98931.47;;;3.29;72.06
14120;BME280;7138;49.246;9.100;2023-04-06T02:13:43;98929.69;;;3.27;72.68
14120;BME280;7138;49.246;9.100;2023-04-06T02:16:09;98920.94;;;3.19;73.15
14120;BME280;7138;49.246;9.100;2023-04-06T02:18:35;98925.16;;;3.18;72.70
14120;BME280;7138;49.246;9.100;2023-04-06T02:21:01;98932.06;;;3.21;73.35
14120;BME280;7138;49.246;9.100;2023-04-06T02:23:27;98926.88;;;3.19;72.55
14120;BME280;7138;49.246;9.100;2023-04-06T02:25:53;98926.06;;;3.20;72.41
14120;BME280;7138;49.246;9.100;2023-04-06T02:28:19;98921.88;;;3.22;73.09
14120;BME280;7138;49.246;9.100;2023-04-06T02:30:46;98918.41;;;3.20;72.78
14120;BME280;7138;49.246;9.100;2023-04-06T02:33:12;98920.88;;;3.17;73.39
14120;BME280;7138;49.246;9.100;2023-04-06T02:35:38;98919.19;;;3.18;73.53
14120;BME280;7138;49.246;9.100;2023-04-06T02:38:04;98918.19;;;3.13;73.12
14120;BME280;7138;49.246;9.100;2023-04-06T02:40:30;98914.56;;;3.06;74.47
14120;BME280;7138;49.246;9.100;2023-04-06T02:42:55;98914.50;;;3.05;74.67
14120;BME280;7138;49.246;9.100;2023-04-06T02:45:21;98912.00;;;3.06;73.38
14120;BME280;7138;49.246;9.100;2023-04-06T02:47:48;98910.13;;;3.01;75.36
14120;BME280;7138;49.246;9.100;2023-04-06T02:50:14;98914.94;;;2.92;75.39
14120;BME280;7138;49.246;9.100;2023-04-06T02:52:41;98912.41;;;2.93;75.57
14120;BME280;7138;49.246;9.100;2023-04-06T02:55:07;98909.66;;;2.87;76.88
14120;BME280;7138;49.246;9.100;2023-04-06T02:57:33;98914.75;;;2.86;75.97
14120;BME280;7138;49.246;9.100;2023-04-06T02:59:59;98912.22;;;2.87;76.56
14120;BME280;7138;49.246;9.100;2023-04-06T03:02:25;98916.56;;;2.90;76.02
14120;BME280;7138;49.246;9.100;2023-04-06T03:04:52;98909.84;;;2.92;75.49
14120;BME280;7138;49.246;9.100;2023-04-06T03:07:18;98914.06;;;2.91;76.47
14120;BME280;7138;49.246;9.100;2023-04-06T03:09:43;98913.19;;;2.91;76.93
14120;BME280;7138;49.246;9.100;2023-04-06T03:12:09;98901.34;;;2.93;75.92
14120;BME280;7138;49.246;9.100;2023-04-06T03:14:35;98912.41;;;2.93;75.41
14120;BME280;7138;49.246;9.100;2023-04-06T03:17:01;98915.66;;;2.88;77.21
14120;BME280;7138;49.246;9.100;2023-04-06T03:19:27;98918.56;;;2.73;78.49
14120;BME280;7138;49.246;9.100;2023-04-06T03:21:54;98913.47;;;2.73;77.05
14120;BME280;7138;49.246;9.100;2023-04-06T03:24:20;98916.16;;;2.78;76.91
14120;BME280;7138;49.246;9.100;2023-04-06T03:26:46;98914.63;;;2.83;76.94
14120;BME280;7138;49.246;9.100;2023-04-06T03:29:12;98912.13;;;2.84;76.63
14120;BME280;7138;49.246;9.100;2023-04-06T03:31:38;98919.75;;;2.83;75.54
14120;BME280;7138;49.246;9.100;2023-04-06T03:34:04;98916.31;;;2.82;76.53
14120;BME280;7138;49.246;9.100;2023-04-06T03:36:30;98923.09;;;2.82;75.52
14120;BME280;7138;49.246;9.100;2023-04-06T03:38:57;98926.22;;;2.73;77.00
14120;BME280;7138;49.246;9.100;2023-04-06T03:41:23;98929.28;;;2.63;76.87
14120;BME280;7138;49.246;9.100;2023-04-06T03:43:49;98924.94;;;2.60;76.44
14120;BME280;7138;49.246;9.100;2023-04-06T03:46:15;98929.25;;;2.61;76.31
14120;BME280;7138;49.246;9.100;2023-04-06T03:48:41;98928.38;;;2.61;76.79
14120;BME280;7138;49.246;9.100;2023-04-06T03:51:07;98928.31;;;2.59;77.09
14120;BME280;7138;49.246;9.100;2023-04-06T03:53:32;98925.75;;;2.59;77.31
14120;BME280;7138;49.246;9.100;2023-04-06T03:55:59;98929.06;;;2.57;77.79
14120;BME280;7138;49.246;9.100;2023-04-06T03:58:25;98933.25;;;2.55;77.88
14120;BME280;7138;49.246;9.100;2023-04-06T04:00:51;98936.63;;;2.54;77.47
14120;BME280;7138;49.246;9.100;2023-04-06T04:03:17;98932.94;;;2.46;78.27
14120;BME280;7138;49.246;9.100;2023-04-06T04:05:43;98933.69;;;2.43;77.76
14120;BME280;7138;49.246;9.100;2023-04-06T04:08:09;98935.44;;;2.44;77.37
14120;BME280;7138;49.246;9.100;2023-04-06T04:10:35;98938.78;;;2.43;77.87
14120;BME280;7138;49.246;9.100;2023-04-06T04:13:02;98942.31;;;2.47;77.58
14120;BME280;7138;49.246;9.100;2023-04-06T04:15:27;98936.31;;;2.45;77.25
14120;BME280;7138;49.246;9.100;2023-04-06T04:17:53;98931.19;;;2.45;78.33
14120;BME280;7138;49.246;9.100;2023-04-06T04:20:19;98941.41;;;2.45;77.51
14120;BME280;7138;49.246;9.100;2023-04-06T04:22:45;98938.78;;;2.43;78.77
14120;BME280;7138;49.246;9.100;2023-04-06T04:25:11;98936.19;;;2.42;78.78
14120;BME280;7138;49.246;9.100;2023-04-06T04:27:37;98937.00;;;2.41;78.44
14120;BME280;7138;49.246;9.100;2023-04-06T04:30:06;98941.19;;;2.39;78.86
14120;BME280;7138;49.246;9.100;2023-04-06T04:32:32;98938.41;;;2.33;78.17
14120;BME280;7138;49.246;9.100;2023-04-06T04:34:57;98943.53;;;2.33;78.51
14120;BME280;7138;49.246;9.100;2023-04-06T04:37:23;98943.53;;;2.33;78.61
14120;BME280;7138;49.246;9.100;2023-04-06T04:39:49;98952.72;;;2.28;80.09
14120;BME280;7138;49.246;9.100;2023-04-06T04:42:15;98944.88;;;2.23;79.61
14120;BME280;7138;49.246;9.100;2023-04-06T04:44:41;98944.00;;;2.22;79.23
14120;BME280;7138;49.246;9.100;2023-04-06T04:47:08;98943.97;;;2.21;79.54
14120;BME280;7138;49.246;9.100;2023-04-06T04:49:34;98945.53;;;2.17;79.88
14120;BME280;7138;49.246;9.100;2023-04-06T04:52:00;98950.63;;;2.17;79.76
14120;BME280;7138;49.246;9.100;2023-04-06T04:54:26;98946.41;;;2.18;80.07
14120;BME280;7138;49.246;9.100;2023-04-06T04:56:51;98946.41;;;2.18;80.24
14120;BME280;7138;49.246;9.100;2023-04-06T04:59:17;98951.44;;;2.16;80.47
14120;BME280;7138;49.246;9.100;2023-04-06T05:01:43;98947.06;;;2.12;80.01
14120;BME280;7138;49.246;9.100;2023-04-06T05:04:10;98955.50;;;2.11;81.17
14120;BME280;7138;49.246;9.100;2023-04-06T05:06:36;98962.03;;;2.03;81.84
14120;BME280;7138;49.246;9.100;2023-04-06T05:09:02;98964.47;;;1.78;83.43
14120;BME280;7138;49.246;9.100;2023-04-06T05:11:28;98969.78;;;1.62;84.20
14120;BME280;7138;49.246;9.100;2023-04-06T05:13:54;98973.19;;;1.62;83.44
14120;BME280;7138;49.246;9.100;2023-04-06T05:16:20;98970.88;;;1.69;82.81
14120;BME280;7138;49.246;9.100;2023-04-06T05:18:47;98967.94;;;1.80;82.99
14120;BME280;7138;49.246;9.100;2023-04-06T05:21:14;98973.47;;;1.92;82.44
14120;BME280;7138;49.246;9.100;2023-04-06T05:23:40;98966.13;;;2.00;83.07
14120;BME280;7138;49.246;9.100;2023-04-06T05:26:06;98963.28;;;2.14;82.21
14120;BME280;7138;49.246;9.100;2023-04-06T05:28:32;98959.91;;;2.39;81.25
14120;BME280;7138;49.246;9.100;2023-04-06T05:30:58;98968.69;;;2.71;80.59
14120;BME280;7138;49.246;9.100;2023-04-06T05:33:25;98964.00;;;3.08;79.87
14120;BME280;7138;49.246;9.100;2023-04-06T05:35:51;98960.06;;;3.45;79.43
14120;BME280;7138;49.246;9.100;2023-04-06T05:38:18;98958.91;;;3.90;78.15
14120;BME280;7138;49.246;9.100;2023-04-06T05:40:44;98957.47;;;4.29;77.46
14120;BME280;7138;49.246;9.100;2023-04-06T05:43:10;98967.38;;;4.78;76.58
14120;BME280;7138;49.246;9.100;2023-04-06T05:45:36;98961.78;;;5.27;75.33
14120;BME280;7138;49.246;9.100;2023-04-06T05:48:02;98956.56;;;5.60;74.07
14120;BME280;7138;49.246;9.100;2023-04-06T05:50:28;98958.28;;;5.97;73.12
14120;BME280;7138;49.246;9.100;2023-04-06T05:52:54;98959.94;;;6.35;71.27
14120;BME280;7138;49.246;9.100;2023-04-06T05:55:21;98957.34;;;6.77;71.32
14120;BME280;7138;49.246;9.100;2023-04-06T05:57:47;98961.38;;;7.11;69.94
14120;BME280;7138;49.246;9.100;2023-04-06T06:00:14;98961.13;;;7.48;68.86
14120;BME280;7138;49.246;9.100;2023-04-06T06:02:40;98955.69;;;7.84;67.91
14120;BME280;7138;49.246;9.100;2023-04-06T06:05:08;98969.84;;;8.18;67.90
14120;BME280;7138;49.246;9.100;2023-04-06T06:07:35;98967.66;;;8.45;67.02
14120;BME280;7138;49.246;9.100;2023-04-06T06:10:01;98969.81;;;8.81;65.80
14120;BME280;7138;49.246;9.100;2023-04-06T06:12:28;98970.09;;;9.11;65.10
14120;BME280;7138;49.246;9.100;2023-04-06T06:14:54;98976.31;;;9.30;64.77
14120;BME280;7138;49.246;9.100;2023-04-06T06:17:20;98973.88;;;9.50;64.30
14120;BME280;7138;49.246;9.100;2023-04-06T06:19:47;98974.03;;;9.69;63.96
14120;BME280;7138;49.246;9.100;2023-04-06T06:22:13;98967.22;;;9.80;63.19
14120;BME280;7138;49.246;9.100;2023-04-06T06:24:39;98981.91;;;9.92;63.34
14120;BME280;7138;49.246;9.100;2023-04-06T06:27:05;98976.84;;;10.03;62.68
14120;BME280;7138;49.246;9.100;2023-04-06T06:29:32;98975.19;;;10.15;62.86
14120;BME280;7138;49.246;9.100;2023-04-06T06:31:58;98983.88;;;10.25;62.60
14120;BME280;7138;49.246;9.100;2023-04-06T06:34:23;98975.19;;;10.15;62.23
14120;BME280;7138;49.246;9.100;2023-04-06T06:36:49;98987.06;;;9.89;61.78
14120;BME280;7138;49.246;9.100;2023-04-06T06:39:16;98985.22;;;9.68;61.32
14120;BME280;7138;49.246;9.100;2023-04-06T06:41:42;98991.06;;;9.49;61.54
14120;BME280;7138;49.246;9.100;2023-04-06T06:44:08;98985.72;;;9.28;62.69
14120;BME280;7138;49.246;9.100;2023-04-06T06:46:35;98989.81;;;9.05;62.63
14120;BME280;7138;49.246;9.100;2023-04-06T06:49:01;98996.47;;;8.83;63.30
14120;BME280;7138;49.246;9.100;2023-04-06T06:51:28;99000.53;;;8.64;63.53
14120;BME280;7138;49.246;9.100;2023-04-06T06:53:54;98998.69;;;8.53;63.67
14120;BME280;7138;49.246;9.100;2023-04-06T06:56:20;99000.25;;;8.40;64.11
14120;BME280;7138;49.246;9.100;2023-04-06T06:58:46;99006.16;;;8.33;65.62
14120;BME280;7138;49.246;9.100;2023-04-06T07:01:11;99002.47;;;8.16;65.48
14120;BME280;7138;49.246;9.100;2023-04-06T07:03:39;98997.31;;;8.14;66.38
14120;BME280;7138;49.246;9.100;2023-04-06T07:06:05;98998.09;;;8.12;66.73
14120;BME280;7138;49.246;9.100;2023-04-06T07:08:31;99001.50;;;8.09;66.50
14120;BME280;7138;49.246;9.100;2023-04-06T07:10:56;98998.06;;;8.09;66.98
14120;BME280;7138;49.246;9.100;2023-04-06T07:13:22;98998.94;;;8.09;65.95
14120;BME280;7138;49.246;9.100;2023-04-06T07:15:49;99000.72;;;8.13;65.57
14120;BME280;7138;49.246;9.100;2023-04-06T07:18:18;98989.78;;;8.28;65.41
14120;BME280;7138;49.246;9.100;2023-04-06T07:20:45;98994.13;;;8.34;67.01
14120;BME280;7138;49.246;9.100;2023-04-06T07:23:11;98994.25;;;8.43;66.78
14120;BME280;7138;49.246;9.100;2023-04-06T07:25:37;98998.69;;;8.54;67.32
14120;BME280;7138;49.246;9.100;2023-04-06T07:28:04;99002.25;;;8.64;67.24
14120;BME280;7138;49.246;9.100;2023-04-06T07:30:30;98992.09;;;8.77;66.88
14120;BME280;7138;49.246;9.100;2023-04-06T07:32:56;98996.25;;;8.66;66.76
14120;BME280;7138;49.246;9.100;2023-04-06T07:35:25;99000.75;;;8.83;66.63
14120;BME280;7138;49.246;9.100;2023-04-06T07:37:54;99000.75;;;8.81;65.12
14120;BME280;7138;49.246;9.100;2023-04-06T07:40:20;98999.09;;;8.91;66.85
14120;BME280;7138;49.246;9.100;2023-04-06T07:42:46;98991.59;;;9.10;66.79
14120;BME280;7138;49.246;9.100;2023-04-06T07:45:12;98990.91;;;9.31;65.81
14120;BME280;7138;49.246;9.100;2023-04-06T07:47:38;98991.13;;;9.54;65.52
14120;BME280;7138;49.246;9.100;2023-04-06T07:50:05;98980.94;;;9.76;64.86
14120;BME280;7138;49.246;9.100;2023-04-06T07:52:31;98987.91;;;9.86;63.64
14120;BME280;7138;49.246;9.100;2023-04-06T07:54:59;98984.56;;;10.00;64.14
14120;BME280;7138;49.246;9.100;2023-04-06T07:57:25;98981.16;;;10.10;64.10
14120;BME280;7138;49.246;9.100;2023-04-06T07:59:51;98983.91;;;10.29;64.46
14120;BME280;7138;49.246;9.100;2023-04-06T08:02:17;98979.59;;;10.34;64.18
14120;BME280;7138;49.246;9.100;2023-04-06T08:04:43;98979.72;;;10.57;64.66
14120;BME280;7138;49.246;9.100;2023-04-06T08:07:09;98977.19;;;10.77;63.85
14120;BME280;7138;49.246;9.100;2023-04-06T08:09:35;98979.84;;;11.00;64.04
14120;BME280;7138;49.246;9.100;2023-04-06T08:12:02;98977.28;;;11.15;63.02
14120;BME280;7138;49.246;9.100;2023-04-06T08:14:28;98981.59;;;11.34;63.67
14120;BME280;7138;49.246;9.100;2023-04-06T08:16:54;98985.09;;;11.54;62.71
14120;BME280;7138;49.246;9.100;2023-04-06T08:19:20;98985.09;;;11.57;62.44
14120;BME280;7138;49.246;9.100;2023-04-06T08:21:46;98977.31;;;11.57;62.51
14120;BME280;7138;49.246;9.100;2023-04-06T08:24:13;98986.81;;;11.57;61.48
14120;BME280;7138;49.246;9.100;2023-04-06T08:26:39;98982.47;;;11.62;62.34
14120;BME280;7138;49.246;9.100;2023-04-06T08:29:06;98980.78;;;11.82;61.91
14120;BME280;7138;49.246;9.100;2023-04-06T08:31:35;98981.63;;;12.00;62.06
14120;BME280;7138;49.246;9.100;2023-04-06T08:34:02;98974.66;;;12.18;61.92
14120;BME280;7138;49.246;9.100;2023-04-06T08:36:28;98983.16;;;12.53;60.50
14120;BME280;7138;49.246;9.100;2023-04-06T08:38:54;98986.56;;;12.76;60.43
14120;BME280;7138;49.246;9.100;2023-04-06T08:41:20;98975.19;;;12.95;60.52
14120;BME280;7138;49.246;9.100;2023-04-06T08:43:49;98985.56;;;13.00;58.41
14120;BME280;7138;49.246;9.100;2023-04-06T08:46:17;98976.00;;;13.06;58.86
14120;BME280;7138;49.246;9.100;2023-04-06T08:48:45;98978.50;;;13.25;60.01
14120;BME280;7138;49.246;9.100;2023-04-06T08:51:12;98977.53;;;13.39;60.01
14120;BME280;7138;49.246;9.100;2023-04-06T08:53:39;98966.19;;;13.48;58.27
14120;BME280;7138;49.246;9.100;2023-04-06T08:56:05;98973.03;;;13.61;59.12
14120;BME280;7138;49.246;9.100;2023-04-06T08:58:35;98974.66;;;13.73;59.70
14120;BME280;7138;49.246;9.100;2023-04-06T09:01:06;98979.84;;;13.71;58.30
14120;BME280;7138;49.246;9.100;2023-04-06T09:03:37;98969.44;;;13.74;57.86
14120;BME280;7138;49.246;9.100;2023-04-06T09:06:04;98966.66;;;13.94;58.16
14120;BME280;7138;49.246;9.100;2023-04-06T09:08:32;98970.00;;;14.06;58.10
14120;BME280;7138;49.246;9.100;2023-04-06T09:10:58;98968.19;;;14.11;56.08
14120;BME280;7138;49.246;9.100;2023-04-06T09:13:24;98968.19;;;14.13;54.54
14120;BME280;7138;49.246;9.100;2023-04-06T09:16:00;98968.06;;;14.25;57.01
14120;BME280;7138;49.246;9.100;2023-04-06T09:18:29;98957.56;;;14.36;56.30
14120;BME280;7138;49.246;9.100;2023-04-06T09:21:02;98962.44;;;14.63;57.18
14120;BME280;7138;49.246;9.100;2023-04-06T09:23:28;98964.84;;;14.78;56.45
14120;BME280;7138;49.246;9.100;2023-04-06T09:26:09;98955.03;;;14.98;55.95
14120;BME280;7138;49.246;9.100;2023-04-06T09:28:47;98959.88;;;15.22;57.46
14120;BME280;7138;49.246;9.100;2023-04-06T09:31:15;98958.72;;;15.39;56.92
14120;BME280;7138;49.246;9.100;2023-04-06T09:33:43;98952.66;;;15.40;55.01
14120;BME280;7138;49.246;9.100;2023-04-06T09:36:12;98955.41;;;15.29;56.12
14120;BME280;7138;49.246;9.100;2023-04-06T09:38:53;98955.53;;;15.20;56.68
14120;BME280;7138;49.246;9.100;2023-04-06T09:41:24;98954.63;;;15.25;56.33
14120;BME280;7138;49.246;9.100;2023-04-06T09:43:51;98945.69;;;15.39;56.10
14120;BME280;7138;49.246;9.100;2023-04-06T09:46:21;98955.91;;;15.54;54.37
14120;BME280;7138;49.246;9.100;2023-04-06T09:48:49;98945.19;;;15.72;54.67
14120;BME280;7138;49.246;9.100;2023-04-06T09:51:18;98940.66;;;15.83;55.27
14120;BME280;7138;49.246;9.100;2023-04-06T09:53:53;98948.94;;;16.05;54.92
14120;BME280;7138;49.246;9.100;2023-04-06T09:56:24;98940.84;;;16.20;53.33
14120;BME280;7138;49.246;9.100;2023-04-06T09:58:57;98943.38;;;16.23;53.18
14120;BME280;7138;49.246;9.100;2023-04-06T10:01:30;98943.34;;;16.24;51.92
14120;BME280;7138;49.246;9.100;2023-04-06T10:04:10;98943.31;;;16.26;53.56
14120;BME280;7138;49.246;9.100;2023-04-06T10:06:40;98950.81;;;16.42;54.43
14120;BME280;7138;49.246;9.100;2023-04-06T10:09:08;98944.44;;;16.57;53.33
14120;BME280;7138;49.246;9.100;2023-04-06T10:11:34;98941.69;;;16.65;51.26
14120;BME280;7138;49.246;9.100;2023-04-06T10:14:00;98937.00;;;16.80;52.04
14120;BME280;7138;49.246;9.100;2023-04-06T10:16:27;98946.13;;;17.00;51.41
14120;BME280;7138;49.246;9.100;2023-04-06T10:19:00;98938.72;;;17.18;50.26
14120;BME280;7138;49.246;9.100;2023-04-06T10:21:29;98934.94;;;17.31;52.14
14120;BME280;7138;49.246;9.100;2023-04-06T10:24:01;98935.31;;;17.52;50.37
14120;BME280;7138;49.246;9.100;2023-04-06T10:26:28;98918.59;;;17.59;50.10
14120;BME280;7138;49.246;9.100;2023-04-06T10:28:54;98926.84;;;17.77;51.02
14120;BME280;7138;49.246;9.100;2023-04-06T10:31:25;98938.13;;;17.79;50.01
14120;BME280;7138;49.246;9.100;2023-04-06T10:33:55;98930.41;;;17.75;50.91
14120;BME280;7138;49.246;9.100;2023-04-06T10:36:23;98936.47;;;17.75;48.85
14120;BME280;7138;49.246;9.100;2023-04-06T10:38:56;98929.25;;;17.85;49.55
14120;BME280;7138;49.246;9.100;2023-04-06T10:41:32;98926.47;;;17.91;49.82
14120;BME280;7138;49.246;9.100;2023-04-06T10:43:59;98930.09;;;17.87;49.01
14120;BME280;7138;49.246;9.100;2023-04-06T10:46:28;98928.22;;;17.90;47.89
14120;BME280;7138;49.246;9.100;2023-04-06T10:48:55;98911.63;;;17.91;48.48
14120;BME280;7138;49.246;9.100;2023-04-06T10:51:27;98929.50;;;18.08;48.70
14120;BME280;7138;49.246;9.100;2023-04-06T10:53:54;98922.94;;;18.24;48.69
14120;BME280;7138;49.246;9.100;2023-04-06T10:56:24;98922.13;;;18.22;47.68
14120;BME280;7138;49.246;9.100;2023-04-06T10:58:54;98922.44;;;18.12;46.30
14120;BME280;7138;49.246;9.100;2023-04-06T11:01:23;98921.59;;;18.11;46.59
14120;BME280;7138;49.246;9.100;2023-04-06T11:03:53;98923.34;;;18.11;47.77
14120;BME280;7138;49.246;9.100;2023-04-06T11:06:20;98909.19;;;18.18;47.82
14120;BME280;7138;49.246;9.100;2023-04-06T11:08:46;98923.69;;;18.29;48.31
14120;BME280;7138;49.246;9.100;2023-04-06T11:11:14;98915.78;;;18.31;47.64
14120;BME280;7138;49.246;9.100;2023-04-06T11:13:47;98917.75;;;18.23;46.08
14120;BME280;7138;49.246;9.100;2023-04-06T11:16:16;98916.69;;;18.30;47.80
14120;BME280;7138;49.246;9.100;2023-04-06T11:18:50;98907.97;;;18.29;45.78
14120;BME280;7138;49.246;9.100;2023-04-06T11:21:17;98919.06;;;18.39;47.12
14120;BME280;7138;49.246;9.100;2023-04-06T11:23:43;98905.50;;;18.55;47.54
14120;BME280;7138;49.246;9.100;2023-04-06T11:26:11;98906.53;;;18.48;48.61
14120;BME280;7138;49.246;9.100;2023-04-06T11:28:37;98898.41;;;18.59;47.93
14120;BME280;7138;49.246;9.100;2023-04-06T11:31:05;98899.53;;;18.50;47.36
14120;BME280;7138;49.246;9.100;2023-04-06T11:33:35;98890.72;;;18.53;47.74
14120;BME280;7138;49.246;9.100;2023-04-06T11:36:02;98897.34;;;18.35;45.74
14120;BME280;7138;49.246;9.100;2023-04-06T11:38:30;98888.34;;;18.15;46.20
14120;BME280;7138;49.246;9.100;2023-04-06T11:40:56;98889.78;;;18.25;47.04
14120;BME280;7138;49.246;9.100;2023-04-06T11:43:28;98882.50;;;18.36;46.45
14120;BME280;7138;49.246;9.100;2023-04-06T11:46:00;98883.97;;;18.44;46.01
14120;BME280;7138;49.246;9.100;2023-04-06T11:48:29;98879.38;;;18.52;46.17
14120;BME280;7138;49.246;9.100;2023-04-06T11:50:56;98867.88;;;18.58;46.15
14120;BME280;7138;49.246;9.100;2023-04-06T11:53:23;98881.66;;;18.65;46.10
14120;BME280;7138;49.246;9.100;2023-04-06T11:55:49;98873.00;;;18.61;45.90
14120;BME280;7138;49.246;9.100;2023-04-06T11:58:15;98871.88;;;18.40;46.22
14120;BME280;7138;49.246;9.100;2023-04-06T12:00:42;98876.25;;;18.40;44.95
14120;BME280;7138;49.246;9.100;2023-04-06T12:03:11;98868.44;;;18.38;47.33
14120;BME280;7138;49.246;9.100;2023-04-06T12:05:39;98860.44;;;18.43;46.95
14120;BME280;7138;49.246;9.100;2023-04-06T12:08:05;98861.16;;;18.49;46.33
14120;BME280;7138;49.246;9.100;2023-04-06T12:10:31;98866.38;;;18.49;45.56
14120;BME280;7138;49.246;9.100;2023-04-06T12:12:57;98861.38;;;18.40;44.78
14120;BME280;7138;49.246;9.100;2023-04-06T12:15:22;98856.47;;;18.30;44.61
14120;BME280;7138;49.246;9.100;2023-04-06T12:17:48;98858.94;;;18.34;47.01
14120;BME280;7138;49.246;9.100;2023-04-06T12:20:15;98854.59;;;18.33;46.77
14120;BME280;7138;49.246;9.100;2023-04-06T12:22:42;98855.81;;;18.23;46.04
14120;BME280;7138;49.246;9.100;2023-04-06T12:25:09;98847.94;;;18.23;47.39
14120;BME280;7138;49.246;9.100;2023-04-06T12:27:35;98845.88;;;18.34;47.39
14120;BME280;7138;49.246;9.100;2023-04-06T12:30:01;98839.72;;;18.35;46.20
14120;BME280;7138;49.246;9.100;2023-04-06T12:32:27;98842.28;;;18.37;47.86
14120;BME280;7138;49.246;9.100;2023-04-06T12:34:53;98832.31;;;18.51;46.73
14120;BME280;7138;49.246;9.100;2023-04-06T12:37:19;98829.50;;;18.57;45.35
14120;BME280;7138;49.246;9.100;2023-04-06T12:39:47;98827.53;;;18.64;47.43
14120;BME280;7138;49.246;9.100;2023-04-06T12:42:13;98827.50;;;18.65;44.90
14120;BME280;7138;49.246;9.100;2023-04-06T12:44:39;98827.88;;;18.81;45.75
14120;BME280;7138;49.246;9.100;2023-04-06T12:47:05;98822.44;;;18.87;45.74
14120;BME280;7138;49.246;9.100;2023-04-06T12:49:32;98822.16;;;18.96;45.66
14120;BME280;7138;49.246;9.100;2023-04-06T12:51:58;98823.75;;;19.00;46.85
14120;BME280;7138;49.246;9.100;2023-04-06T12:54:24;98819.81;;;19.13;45.75
14120;BME280;7138;49.246;9.100;2023-04-06T12:56:53;98830.22;;;19.16;45.13
14120;BME280;7138;49.246;9.100;2023-04-06T12:59:19;98822.44;;;19.13;44.69
14120;BME280;7138;49.246;9.100;2023-04-06T13:01:46;98830.31;;;19.13;45.48
14120;BME280;7138;49.246;9.100;2023-04-06T13:04:12;98822.28;;;18.91;44.23
14120;BME280;7138;49.246;9.100;2023-04-06T13:06:37;98829.28;;;18.91;44.16
14120;BME280;7138;49.246;9.100;2023-04-06T13:09:03;98822.03;;;18.99;46.02
14120;BME280;7138;49.246;9.100;2023-04-06T13:11:31;98820.03;;;19.07;46.15
14120;BME280;7138;49.246;9.100;2023-04-06T13:13:58;98815.38;;;19.15;45.28
14120;BME280;7138;49.246;9.100;2023-04-06T13:16:24;98813.47;;;19.20;45.08